Utica, Indiana
Current Conditions -  °F | °C
As of 10:04 PM on Monday 22 Dec 2014 (Local Time) from KLOU Reporting Station
Light Rain Light Rain  
Wind Chill: 52°   Ceiling: 2000
Heat Index: 52°   Visibility: 4mi
Dew Point: 47°   Wind: 5mph
Humidity: 83%   Direction: 150°SSE
Pressure: 29.7"   Gusts: NA
Location:  38.3363°N, 85.6984°W
Report Text: KLOU 230304Z 15004KT 4SM -RA BKN020 OVC029 11/08 A2970 RMK AO2 P0004 T01110083
Loading
Personal Weather Stations






























Interactive Weather Map New forecast layout! Learn more

10-Day Weather Forecast

Advertisements
Track Severe Weather on mobile